Time;durP1;ratioP1;P1;durP2;ratioP2;P2;SDS_P1;SDS_P2;PMS_P1;PMS_P2;Temp;Humidity;BMP_temperature;BMP_pressure;BME280_temperature;BME280_humidity;BME280_pressure;Samples;Min_cycle;Max_cycle;Signal;HPM_P1;HPM_P2
2022/02/14 07:14:29;;;;;;;6.18;1.90;;;5.40;96.80;;;;;;5102699;27;20388;-57
2022/02/14 07:16:56;;;;;;;4.63;1.20;;;5.40;96.70;;;;;;5110895;28;20044;-60
2022/02/14 07:19:23;;;;;;;8.65;1.58;;;5.40;96.80;;;;;;5110150;28;20039;-57
2022/02/14 07:21:49;;;;;;;9.98;2.45;;;5.50;96.70;;;;;;5109968;28;20031;-56
2022/02/14 07:24:16;;;;;;;7.70;1.50;;;5.50;96.30;;;;;;5107741;28;20040;-59
2022/02/14 07:26:43;;;;;;;4.85;1.52;;;5.60;96.40;;;;;;5102592;28;20036;-55
2022/02/14 07:29:10;;;;;;;6.25;1.13;;;5.60;96.20;;;;;;5090212;28;20377;-55
2022/02/14 07:31:36;;;;;;;5.65;1.00;;;5.70;95.80;;;;;;5099725;28;20047;-57
2022/02/14 07:34:03;;;;;;;3.67;1.73;;;5.70;95.80;;;;;;5109733;28;20041;-55
2022/02/14 07:36:33;;;;;;;4.43;1.30;;;5.70;95.70;;;;;;5108751;28;20036;-60
2022/02/14 07:38:59;;;;;;;2.63;1.00;;;5.70;95.60;;;;;;5099096;28;20067;-58
2022/02/14 07:41:26;;;;;;;8.18;1.30;;;5.70;95.50;;;;;;5090025;28;20118;-58
2022/02/14 07:43:53;;;;;;;5.40;1.23;;;5.80;95.40;;;;;;5088836;28;20040;-57
2022/02/14 07:46:20;;;;;;;6.60;1.20;;;5.80;95.40;;;;;;5090027;28;20082;-54
2022/02/14 07:48:47;;;;;;;4.18;1.25;;;5.80;95.60;;;;;;5092343;28;20442;-58
2022/02/14 07:51:14;;;;;;;3.08;1.13;;;5.80;95.70;;;;;;5109317;28;20039;-52
2022/02/14 07:53:40;;;;;;;2.92;1.13;;;5.80;95.40;;;;;;5108258;28;20089;-56
2022/02/14 07:56:10;;;;;;;5.38;1.17;;;5.80;95.50;;;;;;5109292;28;20380;-59
2022/02/14 07:58:37;;;;;;;4.80;1.17;;;5.80;95.50;;;;;;5109391;28;20621;-56
2022/02/14 08:01:04;;;;;;;5.82;1.17;;;5.80;95.40;;;;;;5109096;28;20032;-58
2022/02/14 08:03:31;;;;;;;4.90;0.95;;;5.80;95.50;;;;;;5093530;28;20037;-56
2022/02/14 08:05:58;;;;;;;6.90;1.15;;;5.80;95.70;;;;;;5093327;28;20441;-58
2022/02/14 08:08:25;;;;;;;4.38;1.65;;;5.90;95.70;;;;;;5106922;28;20044;-58
2022/02/14 08:10:54;;;;;;;8.85;1.55;;;5.90;95.60;;;;;;5089436;28;20414;-57
2022/02/14 08:13:21;;;;;;;6.75;1.10;;;5.90;95.60;;;;;;5089213;28;20534;-56
2022/02/14 08:15:47;;;;;;;6.82;1.30;;;5.90;95.50;;;;;;5103813;28;20040;-57
2022/02/14 08:18:14;;;;;;;5.95;1.05;;;5.90;95.70;;;;;;5108907;28;20047;-54
2022/02/14 08:20:41;;;;;;;4.65;1.17;;;5.90;95.50;;;;;;5107572;28;20469;-57
2022/02/14 08:23:08;;;;;;;5.38;1.52;;;5.90;95.50;;;;;;5108693;28;20518;-56
2022/02/14 08:25:35;;;;;;;6.72;1.23;;;5.90;95.70;;;;;;5096739;28;20040;-57
2022/02/14 08:28:01;;;;;;;4.72;1.10;;;6.00;95.40;;;;;;5095099;28;20036;-55
2022/02/14 08:30:32;;;;;;;7.63;1.27;;;6.00;95.20;;;;;;5095332;28;20052;-56
2022/02/14 08:32:59;;;;;;;3.88;1.17;;;6.00;95.20;;;;;;5094959;28;20097;-53
2022/02/14 08:35:26;;;;;;;9.00;1.55;;;6.00;95.20;;;;;;5095035;28;20078;-56
2022/02/14 08:37:53;;;;;;;9.38;1.70;;;6.00;95.40;;;;;;5094843;28;20044;-59
2022/02/14 08:40:20;;;;;;;6.70;1.45;;;6.10;95.10;;;;;;5094800;28;20043;-58
2022/02/14 08:42:47;;;;;;;3.53;1.17;;;6.10;95.10;;;;;;5094702;28;20548;-58
2022/02/14 08:45:14;;;;;;;7.13;1.52;;;6.10;95.20;;;;;;5094812;28;20044;-54
2022/02/14 08:47:43;;;;;;;6.68;1.10;;;6.10;95.10;;;;;;5094954;28;20036;-53
2022/02/14 08:50:10;;;;;;;6.70;1.40;;;6.20;95.10;;;;;;5084016;28;20044;-56
2022/02/14 08:52:36;;;;;;;3.03;1.17;;;6.20;95.10;;;;;;5075253;28;20044;-53
2022/02/14 08:55:03;;;;;;;7.57;1.20;;;6.30;95.20;;;;;;5075253;28;20507;-57
2022/02/14 08:57:30;;;;;;;16.70;1.85;;;6.30;94.50;;;;;;5075288;28;20041;-57
2022/02/14 08:59:57;;;;;;;13.50;2.05;;;6.30;94.80;;;;;;5075411;28;20036;-60
2022/02/14 09:02:24;;;;;;;7.68;1.73;;;6.30;94.50;;;;;;5086300;28;20476;-58
2022/02/14 09:04:51;;;;;;;6.88;1.60;;;6.40;95.00;;;;;;5094259;28;20506;-57
2022/02/14 09:07:17;;;;;;;8.68;1.92;;;6.40;94.60;;;;;;5094341;28;20066;-57
2022/02/14 09:09:44;;;;;;;8.00;1.70;;;6.50;94.50;;;;;;5093064;28;20046;-59
2022/02/14 09:12:11;;;;;;;9.55;1.52;;;6.50;95.00;;;;;;5093918;28;20040;-57
2022/02/14 09:14:40;;;;;;;4.78;1.55;;;6.60;94.60;;;;;;5094422;28;20046;-54
2022/02/14 09:17:06;;;;;;;8.82;2.03;;;6.60;94.40;;;;;;5093930;28;20044;-51
2022/02/14 09:19:33;;;;;;;7.60;1.80;;;6.60;94.30;;;;;;5094054;28;20051;-54
2022/02/14 09:22:00;;;;;;;10.57;2.55;;;6.70;94.30;;;;;;5092721;28;20044;-58
2022/02/14 09:24:29;;;;;;;9.45;1.40;;;6.70;94.30;;;;;;5093935;28;20043;-56
2022/02/14 09:26:56;;;;;;;4.70;1.85;;;6.80;93.80;;;;;;5093824;28;20507;-61
2022/02/14 09:29:23;;;;;;;8.88;1.45;;;6.80;94.10;;;;;;5094018;28;20043;-59
2022/02/14 09:31:52;;;;;;;9.48;2.42;;;6.90;93.80;;;;;;5093974;28;20072;-55
2022/02/14 09:34:19;;;;;;;6.72;2.35;;;6.90;94.00;;;;;;5092715;28;20052;-56
2022/02/14 09:36:46;;;;;;;9.13;2.17;;;6.90;93.90;;;;;;5092869;28;20494;-56
2022/02/14 09:39:13;;;;;;;9.98;2.00;;;7.00;94.10;;;;;;5093899;28;20044;-61
2022/02/14 09:41:41;;;;;;;7.90;1.77;;;7.00;93.40;;;;;;5093847;28;20110;-57
2022/02/14 09:44:08;;;;;;;7.70;1.55;;;7.00;91.80;;;;;;5092563;28;20047;-54
2022/02/14 09:46:35;;;;;;;9.85;1.48;;;7.10;92.70;;;;;;5074086;28;20074;-61
2022/02/14 09:49:02;;;;;;;6.30;1.33;;;7.10;92.50;;;;;;5073089;28;20042;-55
2022/02/14 09:51:29;;;;;;;6.55;1.50;;;7.10;92.60;;;;;;5074304;28;20046;-52
2022/02/14 09:53:56;;;;;;;7.38;1.63;;;7.20;92.70;;;;;;5074209;28;20040;-57
2022/02/14 09:56:23;;;;;;;6.35;1.15;;;7.20;92.30;;;;;;5074157;28;20535;-57
2022/02/14 09:58:50;;;;;;;8.27;1.20;;;7.20;92.20;;;;;;5074135;28;20051;-55
2022/02/14 10:01:16;;;;;;;7.18;1.67;;;7.20;92.00;;;;;;5074127;28;20094;-60
2022/02/14 10:03:43;;;;;;;7.28;1.50;;;7.20;91.90;;;;;;5073977;28;20051;-57
2022/02/14 10:06:10;;;;;;;8.48;1.13;;;7.30;92.00;;;;;;5073945;28;20070;-55
2022/02/14 10:08:37;;;;;;;8.43;1.70;;;7.30;91.70;;;;;;5073957;28;20045;-56
2022/02/14 10:11:04;;;;;;;4.88;1.42;;;7.30;91.20;;;;;;5073970;28;20037;-57
2022/02/14 10:13:31;;;;;;;7.32;1.48;;;7.40;91.30;;;;;;5073846;28;20044;-55
2022/02/14 10:15:58;;;;;;;5.63;1.42;;;7.40;90.90;;;;;;5088262;28;20043;-58
2022/02/14 10:18:25;;;;;;;4.63;1.38;;;7.40;90.60;;;;;;5079840;28;20037;-59
2022/02/14 10:21:12;;;;;;;5.30;1.40;;;7.50;91.60;;;;;;5073793;28;20044;-57
2022/02/14 10:23:38;;;;;;;4.60;1.45;;;7.60;90.80;;;;;;5073704;28;20036;-60
2022/02/14 10:26:05;;;;;;;3.10;1.08;;;7.60;90.60;;;;;;5089553;28;20419;-59
2022/02/14 10:28:32;;;;;;;6.35;1.40;;;7.60;90.80;;;;;;5091760;28;20041;-57
2022/02/14 10:30:59;;;;;;;7.70;1.50;;;7.70;90.70;;;;;;5088113;28;20079;-58
2022/02/14 10:33:26;;;;;;;4.38;1.00;;;7.70;90.20;;;;;;5077681;28;20441;-52
2022/02/14 10:35:53;;;;;;;5.53;1.00;;;7.70;90.30;;;;;;5073386;28;20412;-58
2022/02/14 10:38:20;;;;;;;5.40;1.27;;;7.80;90.20;;;;;;5073262;28;20373;-59
2022/02/14 10:40:46;;;;;;;6.43;1.17;;;7.80;90.00;;;;;;5082260;28;20051;-61
2022/02/14 10:43:13;;;;;;;6.40;1.10;;;7.90;90.10;;;;;;5092505;28;20051;-55
2022/02/14 10:45:40;;;;;;;4.85;1.00;;;7.90;87.30;;;;;;5092761;28;20149;-57
2022/02/14 10:48:12;;;;;;;6.35;1.30;;;8.00;89.70;;;;;;5092132;28;20043;-54
2022/02/14 10:50:38;;;;;;;5.57;1.08;;;8.10;90.40;;;;;;5091346;28;20426;-53
2022/02/14 10:53:05;;;;;;;7.25;1.45;;;8.30;89.00;;;;;;5092656;28;20105;-57
2022/02/14 10:55:42;;;;;;;5.22;1.10;;;8.40;87.90;;;;;;5092502;28;20399;-57
2022/02/14 10:58:09;;;;;;;6.50;1.38;;;8.40;86.60;;;;;;5092356;28;20051;-58
2022/02/14 11:00:35;;;;;;;5.93;1.30;;;8.40;86.30;;;;;;5092413;28;20060;-55
2022/02/14 11:03:06;;;;;;;4.03;1.33;;;8.30;86.50;;;;;;5092662;28;20126;-58
2022/02/14 11:05:33;;;;;;;6.45;1.83;;;8.30;86.10;;;;;;5092333;28;20048;-59
2022/02/14 11:08:01;;;;;;;5.82;1.27;;;8.30;86.60;;;;;;5092130;28;20036;-57
2022/02/14 11:10:28;;;;;;;6.03;1.33;;;8.30;87.10;;;;;;5092343;28;20077;-58
2022/02/14 11:12:55;;;;;;;4.85;1.23;;;8.40;87.10;;;;;;5091939;28;20044;-57
2022/02/14 11:15:21;;;;;;;3.88;1.10;;;8.40;86.40;;;;;;5090940;28;20050;-59
2022/02/14 11:17:48;;;;;;;4.53;0.93;;;8.40;86.20;;;;;;5085286;28;20041;-59
2022/02/14 11:20:15;;;;;;;5.38;1.20;;;8.40;85.50;;;;;;5086485;28;20036;-61
2022/02/14 11:22:42;;;;;;;7.05;1.00;;;8.40;84.40;;;;;;5075436;28;20052;-56
2022/02/14 11:25:09;;;;;;;4.82;1.25;;;8.40;86.60;;;;;;5072721;28;20459;-60
2022/02/14 11:27:36;;;;;;;6.05;1.10;;;8.40;84.90;;;;;;5072874;28;20064;-56
2022/02/14 11:30:05;;;;;;;7.72;1.52;;;8.50;84.80;;;;;;5072841;28;20075;-57
2022/02/14 11:32:39;;;;;;;3.78;1.15;;;8.50;84.70;;;;;;5073990;28;20437;-59
2022/02/14 11:35:07;;;;;;;4.45;1.20;;;8.60;85.10;;;;;;5074810;28;20568;-56
2022/02/14 11:37:34;;;;;;;5.40;1.20;;;8.80;85.50;;;;;;5074552;28;20480;-57
2022/02/14 11:40:01;;;;;;;4.00;1.67;;;8.80;84.70;;;;;;5073187;28;20090;-57
2022/02/14 11:42:28;;;;;;;6.50;1.38;;;8.90;85.10;;;;;;5073421;28;20059;-60
2022/02/14 11:44:54;;;;;;;7.25;1.30;;;8.90;84.20;;;;;;5079482;28;20032;-57
2022/02/14 11:47:22;;;;;;;7.00;1.25;;;8.80;84.40;;;;;;5090873;28;20146;-61
2022/02/14 11:49:55;;;;;;;5.63;1.00;;;8.90;84.20;;;;;;5092404;28;20046;-57
2022/02/14 11:52:22;;;;;;;6.05;1.20;;;8.90;84.10;;;;;;5092352;28;20373;-58
2022/02/14 11:54:49;;;;;;;3.92;1.20;;;8.90;84.80;;;;;;5086982;28;20044;-56
2022/02/14 11:57:15;;;;;;;5.13;1.35;;;9.00;83.80;;;;;;5090272;28;20044;-58
2022/02/14 11:59:42;;;;;;;6.78;1.48;;;9.00;83.10;;;;;;5075367;28;20385;-55
2022/02/14 12:02:09;;;;;;;3.83;1.23;;;9.00;82.40;;;;;;5080480;28;20399;-59
2022/02/14 12:04:40;;;;;;;4.38;1.00;;;9.00;82.70;;;;;;5081910;28;20090;-55
2022/02/14 12:07:07;;;;;;;6.57;1.40;;;9.10;83.70;;;;;;5087958;28;20044;-57
2022/02/14 12:09:34;;;;;;;5.63;1.33;;;9.10;83.20;;;;;;5081074;28;20109;-58
2022/02/14 12:12:01;;;;;;;7.13;1.50;;;9.10;82.50;;;;;;5094154;28;20044;-55
2022/02/14 12:14:27;;;;;;;3.58;0.95;;;9.20;82.40;;;;;;5095781;28;20449;-57
2022/02/14 12:22:35;;;;;;;4.90;1.08;;;9.30;82.70;;;;;;5095352;28;20128;-54
2022/02/14 12:25:02;;;;;;;4.38;1.40;;;9.30;81.00;;;;;;5095341;28;20085;-54
2022/02/14 12:27:29;;;;;;;7.00;1.20;;;9.30;81.40;;;;;;5095418;28;20050;-57
2022/02/14 12:29:55;;;;;;;4.85;1.00;;;9.40;80.70;;;;;;5095451;28;20480;-56
2022/02/14 12:32:22;;;;;;;4.55;1.10;;;9.40;81.10;;;;;;5095565;28;20044;-55
2022/02/14 12:34:49;;;;;;;3.38;1.00;;;9.40;81.20;;;;;;5095414;28;20050;-59
2022/02/14 12:37:16;;;;;;;5.10;1.10;;;9.40;82.30;;;;;;5095345;28;20044;-56
2022/02/14 12:39:44;;;;;;;3.47;0.85;;;9.50;81.70;;;;;;5093835;28;20044;-56
2022/02/14 12:42:10;;;;;;;3.85;0.82;;;9.40;81.10;;;;;;5094965;28;20048;-56
2022/02/14 12:44:38;;;;;;;4.97;1.23;;;9.40;81.10;;;;;;5094043;28;20111;-52
2022/02/14 12:47:05;;;;;;;3.15;0.90;;;9.40;82.50;;;;;;5095143;28;20032;-57
2022/02/14 12:49:32;;;;;;;4.15;1.17;;;9.40;81.80;;;;;;5094443;28;20032;-57
2022/02/14 12:51:59;;;;;;;4.35;1.10;;;9.40;82.70;;;;;;5095166;28;20032;-59
2022/02/14 12:54:26;;;;;;;5.95;1.20;;;9.40;81.80;;;;;;5091966;28;20052;-52
2022/02/14 12:56:52;;;;;;;5.70;1.23;;;9.50;82.80;;;;;;5078974;28;20047;-58
2022/02/14 12:59:20;;;;;;;4.53;1.30;;;9.60;82.40;;;;;;5093842;28;20077;-61
2022/02/14 13:01:46;;;;;;;5.47;1.27;;;9.70;81.80;;;;;;5092032;28;20063;-58
2022/02/14 13:04:13;;;;;;;4.88;1.00;;;9.70;82.30;;;;;;5075573;28;20040;-57
2022/02/14 13:06:40;;;;;;;5.10;1.30;;;9.70;81.30;;;;;;5075385;28;20041;-57
2022/02/14 13:09:07;;;;;;;5.22;1.23;;;9.80;82.00;;;;;;5090937;28;20062;-57
2022/02/14 13:11:34;;;;;;;4.55;0.88;;;9.70;81.10;;;;;;5094744;28;20039;-56
2022/02/14 13:14:01;;;;;;;5.93;1.10;;;9.70;80.30;;;;;;5093463;28;20052;-59
2022/02/14 13:16:28;;;;;;;8.23;1.08;;;9.70;81.40;;;;;;5093276;28;20048;-54
2022/02/14 13:18:55;;;;;;;2.38;0.70;;;9.80;81.40;;;;;;5094308;28;20483;-61
2022/02/14 13:21:22;;;;;;;3.85;0.75;;;9.80;80.40;;;;;;5094506;28;20046;-58
2022/02/14 13:23:49;;;;;;;3.40;0.90;;;9.80;80.20;;;;;;5094501;28;20047;-59
2022/02/14 13:26:16;;;;;;;2.40;0.85;;;9.80;81.00;;;;;;5094424;28;20036;-55
2022/02/14 13:28:42;;;;;;;2.25;0.77;;;9.60;80.70;;;;;;5091558;28;20172;-56
2022/02/14 13:31:09;;;;;;;5.20;0.80;;;9.50;82.60;;;;;;5073459;28;20039;-58
2022/02/14 13:33:36;;;;;;;2.00;1.00;;;9.40;83.40;;;;;;5074420;28;20041;-59
2022/02/14 13:36:03;;;;;;;5.38;0.85;;;9.40;84.00;;;;;;5074243;28;20048;-60
2022/02/14 13:38:30;;;;;;;1.95;0.80;;;9.30;84.70;;;;;;5074397;28;20102;-59
2022/02/14 13:41:02;;;;;;;4.40;1.00;;;9.30;85.20;;;;;;5074287;28;20052;-56
2022/02/14 13:43:30;;;;;;;2.38;0.80;;;9.20;85.50;;;;;;5074351;28;20111;-58
2022/02/14 13:45:57;;;;;;;3.03;0.95;;;9.30;85.60;;;;;;5074122;28;20438;-55
2022/02/14 13:48:24;;;;;;;3.20;0.75;;;9.40;84.90;;;;;;5074171;28;20467;-56
2022/02/14 13:50:50;;;;;;;4.35;1.05;;;9.50;84.30;;;;;;5074255;28;20044;-55
2022/02/14 13:53:17;;;;;;;2.20;0.90;;;9.50;83.70;;;;;;5074010;28;20037;-59
2022/02/14 13:55:44;;;;;;;4.88;1.30;;;9.60;82.60;;;;;;5073987;28;20079;-59
2022/02/14 13:58:12;;;;;;;3.42;0.68;;;9.70;83.60;;;;;;5081163;28;20492;-57
2022/02/14 14:00:39;;;;;;;2.63;0.77;;;9.70;83.40;;;;;;5093562;28;20048;-59
2022/02/14 14:03:06;;;;;;;3.30;0.93;;;9.70;81.30;;;;;;5093255;28;20075;-53
2022/02/14 14:05:33;;;;;;;2.22;0.70;;;9.80;82.20;;;;;;5090244;28;20036;-55
2022/02/14 14:07:59;;;;;;;2.15;0.73;;;9.70;80.50;;;;;;5073858;28;20469;-55
2022/02/14 14:10:26;;;;;;;2.25;0.80;;;9.70;80.80;;;;;;5073680;28;20047;-57
2022/02/14 14:12:53;;;;;;;2.40;1.02;;;9.70;81.50;;;;;;5077835;28;20554;-56
2022/02/14 14:15:20;;;;;;;2.42;0.70;;;9.60;80.20;;;;;;5075365;28;20502;-54
2022/02/14 14:17:47;;;;;;;1.75;0.65;;;9.50;80.10;;;;;;5073537;28;20044;-56
2022/02/14 14:20:14;;;;;;;2.30;0.80;;;9.60;80.10;;;;;;5073550;28;20102;-56
2022/02/14 14:22:44;;;;;;;3.38;0.70;;;9.70;80.20;;;;;;5079734;28;20040;-52
2022/02/14 14:25:12;;;;;;;3.22;0.80;;;9.80;79.60;;;;;;5073535;28;20114;-58
2022/02/14 14:27:39;;;;;;;4.38;1.00;;;9.80;78.60;;;;;;5073475;28;20454;-57
2022/02/14 14:30:06;;;;;;;3.33;0.82;;;9.80;79.60;;;;;;5073188;28;20041;-54
2022/02/14 14:32:33;;;;;;;1.85;0.70;;;9.80;79.80;;;;;;5073536;28;20044;-53
2022/02/14 14:35:00;;;;;;;1.83;0.70;;;9.90;80.20;;;;;;5078711;28;20500;-57
2022/02/14 14:37:28;;;;;;;3.58;0.90;;;9.90;80.30;;;;;;5073237;28;20044;-53
2022/02/14 14:39:55;;;;;;;4.30;0.80;;;9.80;79.10;;;;;;5055262;28;20070;-53
2022/02/14 14:42:21;;;;;;;3.72;0.80;;;9.90;80.80;;;;;;5073653;28;20380;-55
2022/02/14 14:44:48;;;;;;;4.68;0.95;;;9.80;82.90;;;;;;5092501;28;20044;-55
2022/02/14 14:47:15;;;;;;;4.10;1.00;;;9.70;84.10;;;;;;5092401;28;20114;-56
2022/02/14 14:49:42;;;;;;;2.63;0.98;;;9.40;88.10;;;;;;5092630;28;20043;-57
2022/02/14 14:52:09;;;;;;;4.63;1.60;;;9.00;90.20;;;;;;5092488;28;20456;-60
2022/02/14 14:54:36;;;;;;;4.18;1.25;;;8.70;91.20;;;;;;5092464;28;20093;-59
2022/02/14 14:57:04;;;;;;;3.83;1.20;;;8.40;91.90;;;;;;5092338;28;20036;-57
2022/02/14 14:59:30;;;;;;;3.53;1.40;;;8.30;93.10;;;;;;5090098;28;20048;-58
2022/02/14 15:01:57;;;;;;;5.78;1.40;;;8.10;94.10;;;;;;5072998;28;20043;-57
2022/02/14 15:04:24;;;;;;;4.25;0.90;;;7.90;94.60;;;;;;5073001;28;20076;-55
2022/02/14 15:06:51;;;;;;;3.97;0.80;;;7.90;95.20;;;;;;5073289;28;20392;-57
2022/02/14 15:09:17;;;;;;;3.17;1.00;;;7.90;95.30;;;;;;5073428;28;20036;-56
2022/02/14 15:11:45;;;;;;;4.00;1.30;;;7.90;95.30;;;;;;5072649;28;20051;-58
2022/02/14 15:14:12;;;;;;;3.70;1.10;;;8.00;95.60;;;;;;5088414;28;20044;-56
2022/02/14 15:16:39;;;;;;;4.78;1.30;;;8.00;94.90;;;;;;5079502;28;20139;-52
2022/02/14 15:19:07;;;;;;;6.03;1.35;;;8.10;95.50;;;;;;5071630;28;20101;-55
2022/02/14 15:21:34;;;;;;;4.47;1.30;;;8.10;95.40;;;;;;5071627;28;20040;-55
2022/02/14 15:24:01;;;;;;;3.60;1.40;;;8.20;94.10;;;;;;5091159;28;20090;-56
2022/02/14 15:26:27;;;;;;;6.43;1.10;;;8.20;94.50;;;;;;5091979;28;20127;-55
2022/02/14 15:28:54;;;;;;;4.35;1.15;;;8.20;94.00;;;;;;5090874;28;20679;-57
2022/02/14 15:31:21;;;;;;;4.38;1.05;;;8.20;93.50;;;;;;5091981;28;20040;-56
2022/02/14 15:33:48;;;;;;;3.15;1.00;;;8.20;93.30;;;;;;5092015;28;20495;-57
2022/02/14 15:36:14;;;;;;;4.60;1.23;;;8.20;93.40;;;;;;5076753;28;20043;-53
2022/02/14 15:38:41;;;;;;;5.50;1.17;;;8.20;93.10;;;;;;5076513;28;20041;-54
2022/02/14 15:41:10;;;;;;;6.68;2.05;;;8.30;93.50;;;;;;5076436;28;20075;-55
2022/02/14 15:43:37;;;;;;;5.40;1.40;;;8.30;92.50;;;;;;5083862;28;20062;-52
2022/02/14 15:46:03;;;;;;;6.00;1.38;;;8.30;92.10;;;;;;5095843;28;20050;-48
2022/02/14 15:48:31;;;;;;;4.30;1.45;;;8.30;92.30;;;;;;5095956;28;20101;-54
2022/02/14 15:50:58;;;;;;;2.00;0.98;;;8.30;92.30;;;;;;5095071;28;20036;-54
2022/02/14 15:53:26;;;;;;;3.75;1.20;;;8.30;92.30;;;;;;5095694;28;20042;-57
2022/02/14 15:55:53;;;;;;;4.18;0.88;;;8.30;92.40;;;;;;5095709;28;20043;-56
2022/02/14 15:58:20;;;;;;;4.45;1.20;;;8.30;91.50;;;;;;5094331;28;20560;-55
2022/02/14 16:00:47;;;;;;;3.15;1.00;;;8.30;91.60;;;;;;5095491;28;20044;-60
2022/02/14 16:03:15;;;;;;;4.40;1.08;;;8.30;91.60;;;;;;5095529;28;20044;-59
2022/02/14 16:05:41;;;;;;;7.30;1.15;;;8.20;92.00;;;;;;5095570;28;20078;-59
2022/02/14 16:08:08;;;;;;;7.15;1.42;;;8.20;91.50;;;;;;5095130;28;20484;-62
2022/02/14 16:10:35;;;;;;;2.17;0.98;;;8.30;91.50;;;;;;5095492;28;20044;-55
2022/02/14 16:13:02;;;;;;;5.38;1.27;;;8.20;91.60;;;;;;5087621;28;20044;-56
2022/02/14 16:15:29;;;;;;;3.22;1.63;;;8.20;91.40;;;;;;5085336;28;20082;-56
2022/02/14 16:17:56;;;;;;;3.50;0.90;;;8.30;91.40;;;;;;5090202;28;20045;-59
2022/02/14 16:20:23;;;;;;;4.47;1.10;;;8.20;91.00;;;;;;5075687;28;20115;-53
2022/02/14 16:22:49;;;;;;;2.75;1.05;;;8.20;91.20;;;;;;5075473;28;20044;-54
2022/02/14 16:25:16;;;;;;;6.13;1.27;;;8.30;91.10;;;;;;5075110;28;20049;-58
2022/02/14 16:27:43;;;;;;;6.55;1.08;;;8.30;91.40;;;;;;5081627;28;20040;-57
2022/02/14 16:30:10;;;;;;;3.63;1.20;;;8.30;91.00;;;;;;5076165;28;20202;-55
2022/02/14 16:32:37;;;;;;;3.88;0.90;;;8.20;91.30;;;;;;5075740;28;20037;-58
2022/02/14 16:35:03;;;;;;;6.18;1.42;;;8.20;91.10;;;;;;5075885;28;20044;-56
2022/02/14 16:37:31;;;;;;;3.60;1.00;;;8.20;90.90;;;;;;5074497;28;20098;-56
2022/02/14 16:39:58;;;;;;;2.55;0.90;;;8.20;91.00;;;;;;5075745;28;20112;-55
2022/02/14 16:42:25;;;;;;;2.67;0.95;;;8.20;91.30;;;;;;5075758;28;20051;-58
2022/02/14 16:44:55;;;;;;;7.10;1.35;;;8.20;91.10;;;;;;5079689;28;20115;-57
2022/02/14 16:47:22;;;;;;;4.32;0.95;;;8.20;91.50;;;;;;5094999;28;20141;-59
2022/02/14 16:49:57;;;;;;;4.53;1.45;;;8.30;91.10;;;;;;5094904;28;20044;-58
2022/02/14 16:52:24;;;;;;;3.85;1.10;;;8.30;90.90;;;;;;5093764;28;20044;-47
2022/02/14 16:54:51;;;;;;;5.45;1.98;;;8.30;91.20;;;;;;5093761;28;20041;-57
2022/02/14 16:57:17;;;;;;;4.75;1.15;;;8.20;92.40;;;;;;5081541;28;20036;-60
2022/02/14 16:59:44;;;;;;;3.80;1.20;;;8.00;91.80;;;;;;5093293;28;20464;-57
2022/02/14 17:02:11;;;;;;;3.20;0.90;;;7.80;91.90;;;;;;5093333;28;20036;-60
2022/02/14 17:04:38;;;;;;;2.80;1.13;;;7.60;92.50;;;;;;5094213;28;20048;-53
2022/02/14 17:07:07;;;;;;;2.13;1.23;;;7.60;92.90;;;;;;5094412;28;20043;-57
2022/02/14 17:09:34;;;;;;;4.18;1.50;;;7.50;92.80;;;;;;5087928;28;20094;-56
2022/02/14 17:12:00;;;;;;;4.75;1.33;;;7.50;92.90;;;;;;5073681;28;20037;-58
2022/02/14 17:14:27;;;;;;;4.85;1.27;;;7.40;93.10;;;;;;5074679;28;20078;-54
2022/02/14 17:16:54;;;;;;;1.60;0.60;;;7.40;92.50;;;;;;5074756;28;20424;-59
2022/02/14 17:19:21;;;;;;;2.38;0.82;;;7.40;92.40;;;;;;5074848;28;20070;-53
2022/02/14 17:21:48;;;;;;;2.67;1.20;;;7.30;92.70;;;;;;5082074;28;20056;-57
2022/02/14 17:24:14;;;;;;;3.50;1.60;;;7.20;92.70;;;;;;5076105;28;20499;-55
2022/02/14 17:26:41;;;;;;;5.43;2.70;;;7.20;93.40;;;;;;5087358;28;20100;-53
2022/02/14 17:29:08;;;;;;;3.28;1.80;;;7.10;93.20;;;;;;5074665;28;20110;-54
2022/02/14 17:31:35;;;;;;;6.63;3.42;;;7.10;93.80;;;;;;5074384;28;20111;-59
2022/02/14 17:34:01;;;;;;;5.10;2.95;;;7.10;93.60;;;;;;5074341;28;20033;-60
2022/02/14 17:36:30;;;;;;;6.28;3.80;;;7.00;93.90;;;;;;5074384;28;20048;-60
2022/02/14 17:38:57;;;;;;;4.93;2.78;;;7.00;93.40;;;;;;5075114;28;20411;-58
2022/02/14 17:41:24;;;;;;;1.92;1.00;;;7.00;93.50;;;;;;5094102;28;20055;-58
2022/02/14 17:43:50;;;;;;;1.60;0.60;;;7.00;93.20;;;;;;5093712;28;20043;-55
2022/02/14 17:46:17;;;;;;;2.33;1.45;;;7.00;93.60;;;;;;5091181;28;20043;-57
2022/02/14 17:48:45;;;;;;;2.80;1.33;;;7.00;93.70;;;;;;5093542;28;20032;-55
2022/02/14 17:51:13;;;;;;;1.50;0.70;;;6.90;93.80;;;;;;5093811;28;20036;-56
2022/02/14 17:53:40;;;;;;;1.83;0.65;;;6.90;94.30;;;;;;5093711;28;20119;-58
2022/02/14 17:56:08;;;;;;;1.48;0.80;;;6.90;93.90;;;;;;5093320;28;20055;-59
2022/02/14 17:58:34;;;;;;;1.70;1.00;;;6.80;94.10;;;;;;5092355;28;20044;-56
2022/02/14 18:01:01;;;;;;;1.17;0.55;;;6.70;94.30;;;;;;5093299;28;20506;-52
2022/02/14 18:03:28;;;;;;;1.13;0.50;;;6.70;94.20;;;;;;5093713;28;20039;-57
2022/02/14 18:05:55;;;;;;;1.67;0.70;;;6.60;94.50;;;;;;5093513;28;20483;-54
2022/02/14 18:08:22;;;;;;;4.07;0.80;;;6.60;94.40;;;;;;5093376;28;20028;-56
2022/02/14 18:10:49;;;;;;;1.30;0.60;;;6.50;94.70;;;;;;5093551;28;20039;-59
2022/02/14 18:13:15;;;;;;;2.03;0.90;;;6.50;94.70;;;;;;5076967;28;20128;-56
2022/02/14 18:15:43;;;;;;;1.80;0.80;;;6.50;94.80;;;;;;5086110;28;20047;-58
2022/02/14 18:18:12;;;;;;;2.03;0.60;;;6.50;94.80;;;;;;5092002;28;20043;-57
2022/02/14 18:20:39;;;;;;;1.85;0.68;;;6.40;94.80;;;;;;5093069;28;20747;-54
2022/02/14 18:23:07;;;;;;;8.75;0.85;;;6.40;94.80;;;;;;5086948;28;20049;-59
2022/02/14 18:25:34;;;;;;;2.05;0.90;;;6.40;94.90;;;;;;5073329;28;20489;-55
2022/02/14 18:28:01;;;;;;;1.58;0.90;;;6.40;95.10;;;;;;5073296;28;20066;-55
2022/02/14 18:30:28;;;;;;;3.47;1.17;;;6.40;95.20;;;;;;5073639;28;20037;-58
2022/02/14 18:32:55;;;;;;;2.78;0.95;;;6.40;95.50;;;;;;5073494;28;20098;-59
2022/02/14 18:35:22;;;;;;;4.95;1.30;;;6.50;95.50;;;;;;5073740;28;20045;-59
2022/02/14 18:37:50;;;;;;;4.43;1.30;;;6.50;95.60;;;;;;5074820;28;20135;-58
2022/02/14 18:40:17;;;;;;;2.58;1.30;;;6.50;95.50;;;;;;5075830;28;20063;-56
2022/02/14 18:43:04;;;;;;;2.03;1.05;;;6.50;95.50;;;;;;5074314;28;20457;-59
2022/02/14 18:45:31;;;;;;;5.07;1.83;;;6.40;95.50;;;;;;5085120;28;20085;-59
2022/02/14 18:47:58;;;;;;;3.97;1.55;;;6.40;95.50;;;;;;5085359;28;20472;-58
2022/02/14 18:50:26;;;;;;;4.60;1.70;;;6.40;95.50;;;;;;5092735;28;20066;-56
2022/02/14 18:52:52;;;;;;;4.47;1.50;;;6.40;95.40;;;;;;5092883;28;20123;-60
2022/02/14 18:55:19;;;;;;;2.63;1.30;;;6.50;95.30;;;;;;5092381;28;20032;-57
2022/02/14 18:57:46;;;;;;;3.15;1.50;;;6.50;95.30;;;;;;5092906;28;20494;-58
2022/02/14 19:00:13;;;;;;;4.18;1.35;;;6.60;95.30;;;;;;5090856;28;20116;-57
2022/02/14 19:02:40;;;;;;;3.17;1.70;;;6.60;95.40;;;;;;5072679;28;20040;-57
2022/02/14 19:05:07;;;;;;;2.25;1.25;;;6.60;95.10;;;;;;5073486;28;20406;-58
2022/02/14 19:07:34;;;;;;;2.88;1.40;;;6.60;95.00;;;;;;5092549;28;20036;-56
2022/02/14 19:10:01;;;;;;;4.80;1.58;;;6.70;94.80;;;;;;5081606;28;20040;-56
2022/02/14 19:12:29;;;;;;;4.22;1.60;;;6.70;94.80;;;;;;5083623;28;21147;-57
2022/02/14 19:14:56;;;;;;;3.35;2.10;;;6.70;94.70;;;;;;5092717;28;20052;-53
2022/02/14 19:17:23;;;;;;;4.38;1.40;;;6.70;94.40;;;;;;5082084;28;20047;-54
2022/02/14 19:19:50;;;;;;;4.75;1.58;;;6.70;94.50;;;;;;5083452;28;20483;-56
2022/02/14 19:22:17;;;;;;;8.18;1.70;;;6.70;93.90;;;;;;5074267;28;20135;-54
2022/02/14 19:24:44;;;;;;;4.10;1.98;;;6.80;93.70;;;;;;5077129;28;20101;-58
2022/02/14 19:27:11;;;;;;;5.90;1.80;;;6.80;93.70;;;;;;5092135;28;20123;-54
2022/02/14 19:29:37;;;;;;;5.65;1.60;;;6.80;92.90;;;;;;5091238;28;20495;-54
2022/02/14 19:32:07;;;;;;;7.00;1.40;;;6.80;93.40;;;;;;5092398;28;20039;-54
2022/02/14 19:34:37;;;;;;;3.08;1.13;;;6.80;93.80;;;;;;5091188;28;20105;-54
2022/02/14 19:37:08;;;;;;;5.30;1.30;;;6.80;93.40;;;;;;5092288;28;20130;-54
2022/02/14 19:39:35;;;;;;;4.20;1.50;;;6.80;93.70;;;;;;5092419;28;20059;-49
2022/02/14 19:42:02;;;;;;;4.10;1.60;;;6.80;93.70;;;;;;5092368;28;20051;-56
2022/02/14 19:44:30;;;;;;;3.85;1.40;;;6.80;93.30;;;;;;5091146;28;20126;-56
2022/02/14 19:47:01;;;;;;;4.30;1.30;;;6.90;93.90;;;;;;5092079;28;20042;-56
2022/02/14 19:49:27;;;;;;;8.60;1.67;;;6.80;94.00;;;;;;5091467;28;20040;-56
2022/02/14 19:51:55;;;;;;;3.38;1.55;;;6.90;93.70;;;;;;5092472;28;20040;-57
2022/02/14 19:54:21;;;;;;;6.45;1.65;;;6.90;94.00;;;;;;5090083;28;20039;-55
2022/02/14 19:56:51;;;;;;;3.85;1.60;;;6.90;94.30;;;;;;5092056;28;20044;-55
2022/02/14 19:59:18;;;;;;;5.55;2.35;;;6.90;94.00;;;;;;5090708;28;20052;-56
2022/02/14 20:01:46;;;;;;;6.13;2.03;;;6.90;94.40;;;;;;5074591;28;20045;-58
2022/02/14 20:04:13;;;;;;;5.75;1.60;;;6.90;94.40;;;;;;5072805;28;20044;-53
2022/02/14 20:06:40;;;;;;;6.00;1.70;;;6.90;94.50;;;;;;5072470;28;20078;-57
2022/02/14 20:09:10;;;;;;;6.38;1.77;;;6.90;94.50;;;;;;5080329;28;20059;-55
2022/02/14 20:11:36;;;;;;;4.55;1.88;;;6.90;94.50;;;;;;5085909;28;20045;-55
2022/02/14 20:14:07;;;;;;;4.35;1.52;;;6.90;94.80;;;;;;5081059;28;20062;-52
2022/02/14 20:16:34;;;;;;;3.60;1.40;;;6.90;94.60;;;;;;5092224;28;20032;-53